createdAt,value
2019-03-10T00:01:01.376Z,25.00
2019-03-10T00:03:27.803Z,25.97
2019-03-10T00:05:54.463Z,30.25
2019-03-10T00:08:20.808Z,31.07
2019-03-10T00:10:47.213Z,26.30
2019-03-10T00:13:13.631Z,27.02
2019-03-10T00:15:40.192Z,27.20
2019-03-10T00:18:06.488Z,26.05
2019-03-10T00:20:32.813Z,26.62
2019-03-10T00:22:59.239Z,30.05
2019-03-10T00:25:25.572Z,22.73
2019-03-10T00:27:51.996Z,27.52
2019-03-10T00:30:18.401Z,25.20
2019-03-10T00:32:44.767Z,23.55
2019-03-10T00:35:21.760Z,24.67
2019-03-10T00:37:49.193Z,22.15
2019-03-10T00:40:53.385Z,22.05
2019-03-10T00:43:50.248Z,26.05
2019-03-10T00:46:45.851Z,27.75
2019-03-10T00:52:05.305Z,24.67
2019-03-10T00:54:31.670Z,29.82
2019-03-10T00:56:57.970Z,26.68
2019-03-10T00:59:24.397Z,28.23
2019-03-10T01:01:50.704Z,23.92
2019-03-10T01:04:17.025Z,28.00
2019-03-10T01:06:43.469Z,26.90
2019-03-10T01:09:09.775Z,27.02
2019-03-10T01:11:36.548Z,31.65
2019-03-10T01:14:02.866Z,28.23
2019-03-10T01:16:29.764Z,24.72
2019-03-10T01:18:56.118Z,24.45
2019-03-10T01:21:42.283Z,26.97
2019-03-10T01:24:08.641Z,26.52
2019-03-10T01:26:34.929Z,23.15
2019-03-10T01:29:01.276Z,25.65
2019-03-10T01:32:04.525Z,28.70
2019-03-10T01:34:55.747Z,27.37
2019-03-10T01:37:23.194Z,25.32
2019-03-10T01:39:49.740Z,22.75
2019-03-10T01:42:16.973Z,25.48
2019-03-10T01:44:43.278Z,24.18
2019-03-10T01:47:10.068Z,24.95
2019-03-10T01:49:36.481Z,20.95
2019-03-10T01:52:02.833Z,21.30
2019-03-10T01:54:29.179Z,30.88
2019-03-10T01:56:55.619Z,25.60
2019-03-10T01:59:41.794Z,23.00
2019-03-10T02:02:08.251Z,25.97
2019-03-10T02:04:34.758Z,22.15
2019-03-10T02:07:02.477Z,28.12
2019-03-10T02:09:28.878Z,24.98
2019-03-10T02:11:55.364Z,29.05
2019-03-10T02:14:21.698Z,27.15
2019-03-10T02:16:48.014Z,24.77
2019-03-10T02:19:14.463Z,25.17
2019-03-10T02:21:40.795Z,26.45
2019-03-10T02:24:07.209Z,25.45
2019-03-10T02:26:33.537Z,26.45
2019-03-10T02:28:59.966Z,22.98
2019-03-10T02:31:26.384Z,24.95
2019-03-10T02:33:52.736Z,21.87
2019-03-10T02:36:19.042Z,22.60
2019-03-10T02:38:45.457Z,28.65
2019-03-10T02:41:11.883Z,25.23
2019-03-10T02:43:39.280Z,23.12
2019-03-10T02:46:05.845Z,28.40
2019-03-10T02:48:32.379Z,27.17
2019-03-10T02:51:09.557Z,25.70
2019-03-10T02:53:35.983Z,30.15
2019-03-10T02:56:02.361Z,31.07
2019-03-10T02:58:39.628Z,28.70
2019-03-10T03:01:16.835Z,28.27
2019-03-10T03:03:43.369Z,33.42
2019-03-10T03:06:09.668Z,28.20
2019-03-10T03:08:36.117Z,29.67
2019-03-10T03:11:02.631Z,31.10
2019-03-10T03:13:28.978Z,29.85
2019-03-10T03:15:55.418Z,29.23
2019-03-10T03:18:21.822Z,27.05
2019-03-10T03:20:48.144Z,29.52
2019-03-10T03:23:15.796Z,30.15
2019-03-10T03:25:42.086Z,28.05
2019-03-10T03:28:08.431Z,22.02
2019-03-10T03:30:34.964Z,28.02
2019-03-10T03:33:01.378Z,26.65
2019-03-10T03:35:46.779Z,34.65
2019-03-10T03:38:16.161Z,25.37
2019-03-10T03:40:49.091Z,32.23
2019-03-10T03:43:15.491Z,26.33
2019-03-10T03:45:42.816Z,28.23
2019-03-10T03:48:09.262Z,31.45
2019-03-10T03:50:35.603Z,26.57
2019-03-10T03:53:02.035Z,24.47
2019-03-10T03:55:28.377Z,28.27
2019-03-10T03:57:57.649Z,31.65
2019-03-10T04:00:24.052Z,28.32
2019-03-10T04:02:50.474Z,27.17
2019-03-10T04:05:17.157Z,22.85
2019-03-10T04:07:43.481Z,23.92
2019-03-10T04:10:29.792Z,31.80
2019-03-10T04:12:56.368Z,26.73
2019-03-10T04:15:24.119Z,31.87
2019-03-10T04:17:50.556Z,23.65
2019-03-10T04:20:16.959Z,26.57
2019-03-10T04:22:43.417Z,25.60
2019-03-10T04:25:09.933Z,29.27
2019-03-10T04:27:36.276Z,30.80
2019-03-10T04:30:04.179Z,25.37
2019-03-10T04:32:30.759Z,26.12
2019-03-10T04:34:57.527Z,25.15
2019-03-10T04:37:23.930Z,25.17
2019-03-10T04:39:50.396Z,31.25
2019-03-10T04:42:16.931Z,29.02
2019-03-10T04:44:43.285Z,30.80
2019-03-10T04:47:10.613Z,30.68
2019-03-10T04:49:36.918Z,28.38
2019-03-10T04:52:03.379Z,28.90
2019-03-10T04:54:34.365Z,33.65
2019-03-10T04:57:02.569Z,24.75
2019-03-10T04:59:48.925Z,31.48
2019-03-10T05:02:15.387Z,27.52
2019-03-10T05:04:41.826Z,27.22
2019-03-10T05:07:27.966Z,27.35
2019-03-10T05:09:54.343Z,23.45
2019-03-10T05:12:20.718Z,22.20
2019-03-10T05:14:47.072Z,24.85
2019-03-10T05:17:13.530Z,30.85
2019-03-10T05:19:39.935Z,27.48
2019-03-10T05:22:06.382Z,28.67
2019-03-10T05:24:32.685Z,29.42
2019-03-10T05:26:59.018Z,28.55
2019-03-10T05:29:25.321Z,24.52
2019-03-10T05:31:53.119Z,26.33
2019-03-10T05:34:19.457Z,30.40
2019-03-10T05:36:45.756Z,26.97
2019-03-10T05:39:12.100Z,28.35
2019-03-10T05:41:38.494Z,31.55
2019-03-10T05:44:04.830Z,26.40
2019-03-10T05:46:31.311Z,26.52
2019-03-10T05:48:57.609Z,31.07
2019-03-10T05:51:24.035Z,29.30
2019-03-10T05:53:50.363Z,25.77
2019-03-10T05:56:16.687Z,25.12
2019-03-10T05:58:43.123Z,24.92
2019-03-10T06:01:09.433Z,27.70
2019-03-10T06:03:35.778Z,26.37
2019-03-10T06:06:02.086Z,27.20
2019-03-10T06:08:28.566Z,26.48
2019-03-10T06:10:54.929Z,26.15
2019-03-10T06:13:21.293Z,29.55
2019-03-10T06:15:48.635Z,31.00
2019-03-10T06:18:15.205Z,25.02
2019-03-10T06:20:52.182Z,26.77
2019-03-10T06:23:29.237Z,25.80
2019-03-10T06:25:55.600Z,28.73
2019-03-10T06:28:22.033Z,26.93
2019-03-10T06:30:59.353Z,26.95
2019-03-10T06:33:25.693Z,26.82
2019-03-10T06:35:52.276Z,28.83
2019-03-10T06:38:18.676Z,27.73
2019-03-10T06:40:45.219Z,31.68
2019-03-10T06:43:11.645Z,26.23
2019-03-10T06:45:37.972Z,27.52
2019-03-10T06:48:04.407Z,29.82
2019-03-10T06:50:30.767Z,27.10
2019-03-10T06:52:57.315Z,31.27
2019-03-10T06:55:25.749Z,30.08
2019-03-10T06:57:52.109Z,28.40
2019-03-10T07:00:18.427Z,28.07
2019-03-10T07:02:44.784Z,24.47
2019-03-10T07:05:11.714Z,24.75
2019-03-10T07:07:58.022Z,35.05
2019-03-10T07:10:24.383Z,30.77
2019-03-10T07:12:50.744Z,32.63
2019-03-10T07:15:37.031Z,30.70
2019-03-10T07:18:03.593Z,29.82
2019-03-10T07:20:29.935Z,29.42
2019-03-10T07:22:56.582Z,32.90
2019-03-10T07:25:23.459Z,29.42
2019-03-10T07:27:57.908Z,29.15
2019-03-10T07:30:38.460Z,25.95
2019-03-10T07:33:29.595Z,33.23
2019-03-10T07:36:07.080Z,24.50
2019-03-10T07:38:41.363Z,28.25
2019-03-10T07:41:21.653Z,27.05
2019-03-10T07:44:02.217Z,32.40
2019-03-10T07:46:33.431Z,27.82
2019-03-10T07:49:01.848Z,30.35
2019-03-10T07:51:32.804Z,32.05
2019-03-10T07:54:04.324Z,30.68
2019-03-10T07:57:03.193Z,32.95
2019-03-10T07:59:32.229Z,34.23
2019-03-10T08:02:20.206Z,28.05
2019-03-10T08:04:48.579Z,26.00
2019-03-10T08:07:33.872Z,26.30
2019-03-10T08:10:18.878Z,28.98
2019-03-10T08:12:50.499Z,22.60
2019-03-10T08:15:35.522Z,28.15
2019-03-10T08:18:26.492Z,32.73
2019-03-10T08:21:13.029Z,30.32
2019-03-10T08:23:47.286Z,28.12
2019-03-10T08:26:35.447Z,28.73
2019-03-10T08:29:09.433Z,34.13
2019-03-10T08:31:43.644Z,26.27
2019-03-10T08:34:27.295Z,26.10
2019-03-10T08:36:55.664Z,29.40
2019-03-10T08:39:30.141Z,32.23
2019-03-10T08:42:04.722Z,31.12
2019-03-10T08:44:42.292Z,32.65
2019-03-10T08:47:16.828Z,32.28
2019-03-10T08:49:51.031Z,33.73
2019-03-10T08:52:19.635Z,27.35
2019-03-10T08:55:06.091Z,28.77
2019-03-10T08:57:46.658Z,27.62
2019-03-10T09:00:26.480Z,27.35
2019-03-10T09:02:57.408Z,27.25
2019-03-10T09:05:34.863Z,29.20
2019-03-10T09:08:06.125Z,26.12
2019-03-10T09:10:42.044Z,27.55
2019-03-10T09:13:19.527Z,30.95
2019-03-10T09:15:56.830Z,27.60
2019-03-10T09:18:29.672Z,25.37
2019-03-10T09:20:58.130Z,25.37
2019-03-10T09:23:26.565Z,21.97
2019-03-10T09:25:54.898Z,23.02
2019-03-10T09:28:32.314Z,25.10
2019-03-10T09:31:00.653Z,24.45
2019-03-10T09:33:31.684Z,22.75
2019-03-10T09:36:05.635Z,22.50
2019-03-10T09:38:42.605Z,25.00
2019-03-10T09:41:10.820Z,22.90
2019-03-10T09:44:13.834Z,20.45
2019-03-10T09:46:50.968Z,24.02
2019-03-10T09:49:19.235Z,22.75
2019-03-10T09:52:04.450Z,20.35
2019-03-10T09:54:49.497Z,22.32
2019-03-10T09:57:34.340Z,20.27
2019-03-10T10:00:19.441Z,16.70
2019-03-10T10:02:50.696Z,17.00
2019-03-10T10:05:19.173Z,19.40
2019-03-10T10:08:04.074Z,18.07
2019-03-10T10:10:35.525Z,19.37
2019-03-10T10:13:20.546Z,16.15
2019-03-10T10:15:48.834Z,17.65
2019-03-10T10:18:34.040Z,18.12
2019-03-10T10:21:14.528Z,20.85
2019-03-10T10:23:42.950Z,17.02
2019-03-10T10:26:11.268Z,20.68
2019-03-10T10:28:39.523Z,19.77
2019-03-10T10:31:24.806Z,15.98
2019-03-10T10:36:24.010Z,22.55
2019-03-10T10:38:58.339Z,23.07
2019-03-10T10:41:26.659Z,20.10
2019-03-10T10:43:57.798Z,17.87
2019-03-10T10:46:41.238Z,23.65
2019-03-10T10:49:13.031Z,16.75
2019-03-10T10:51:47.174Z,18.45
2019-03-10T10:54:34.799Z,18.27
2019-03-10T10:57:05.603Z,16.85
2019-03-10T10:59:49.303Z,18.90
2019-03-10T11:02:24.737Z,16.95
2019-03-10T11:05:08.022Z,16.97
2019-03-10T11:07:45.532Z,15.78
2019-03-10T11:10:45.610Z,19.52
2019-03-10T11:13:13.989Z,18.92
2019-03-10T11:15:48.284Z,17.25
2019-03-10T11:18:29.523Z,20.88
2019-03-10T11:21:06.825Z,14.90
2019-03-10T11:23:37.822Z,19.12
2019-03-10T11:26:11.975Z,20.20
2019-03-10T11:28:46.361Z,22.00
2019-03-10T11:31:14.675Z,24.18
2019-03-10T11:33:45.763Z,20.75
2019-03-10T11:36:29.007Z,21.23
2019-03-10T11:39:06.599Z,20.45
2019-03-10T11:41:42.271Z,24.70
2019-03-10T11:44:25.788Z,20.65
2019-03-10T11:46:57.148Z,19.48
2019-03-10T11:49:44.528Z,19.65
2019-03-10T11:52:12.959Z,21.37
2019-03-10T11:54:41.402Z,22.35
2019-03-10T11:57:25.714Z,16.90
2019-03-10T11:59:56.769Z,19.75
2019-03-10T12:02:37.296Z,14.55
2019-03-10T12:05:07.598Z,25.55
2019-03-10T12:07:47.894Z,21.65
2019-03-10T12:10:14.211Z,17.32
2019-03-10T12:12:41.008Z,20.00
2019-03-10T12:15:10.941Z,20.95
2019-03-10T12:17:37.579Z,20.32
2019-03-10T12:20:12.153Z,16.35
2019-03-10T12:22:38.557Z,20.68
2019-03-10T12:25:08.389Z,21.07
2019-03-10T12:27:47.896Z,21.23
2019-03-10T12:30:14.927Z,18.35
2019-03-10T12:32:41.381Z,22.65
2019-03-10T12:35:07.904Z,17.48
2019-03-10T12:37:34.449Z,18.77
2019-03-10T12:40:00.787Z,18.25
2019-03-10T12:42:27.414Z,21.10
2019-03-10T12:44:53.850Z,17.52
2019-03-10T12:47:20.165Z,20.85
2019-03-10T12:49:47.648Z,23.42
2019-03-10T12:52:14.024Z,19.90
2019-03-10T12:54:40.459Z,20.60
2019-03-10T12:57:06.792Z,21.12
2019-03-10T12:59:33.353Z,22.20
2019-03-10T13:01:59.821Z,20.85
2019-03-10T13:04:26.267Z,21.40
2019-03-10T13:06:52.786Z,18.85
2019-03-10T13:09:19.262Z,22.42
2019-03-10T13:11:45.575Z,24.72
2019-03-10T13:14:25.384Z,21.68
2019-03-10T13:16:53.457Z,22.48
2019-03-10T13:19:34.721Z,21.37
2019-03-10T13:22:01.601Z,24.92
2019-03-10T13:24:28.967Z,19.37
2019-03-10T13:26:55.625Z,19.30
2019-03-10T13:29:22.169Z,22.48
2019-03-10T13:31:48.851Z,20.23
2019-03-10T13:34:15.245Z,21.95
2019-03-10T13:36:42.074Z,22.07
2019-03-10T13:39:09.739Z,21.25
2019-03-10T13:41:38.206Z,21.65
2019-03-10T13:44:04.694Z,17.85
2019-03-10T13:46:31.339Z,17.20
2019-03-10T13:48:57.894Z,19.07
2019-03-10T13:51:26.564Z,18.95
2019-03-10T13:53:54.697Z,17.80
2019-03-10T13:56:21.518Z,16.37
2019-03-10T13:58:47.936Z,17.80
2019-03-10T14:01:14.519Z,17.67
2019-03-10T14:03:41.168Z,17.48
2019-03-10T14:06:07.886Z,20.70
2019-03-10T14:08:38.785Z,14.93
2019-03-10T14:11:05.801Z,14.73
2019-03-10T14:13:34.678Z,13.72
2019-03-10T14:16:01.355Z,13.93
2019-03-10T14:18:28.059Z,15.93
2019-03-10T14:20:55.007Z,16.73
2019-03-10T14:23:21.885Z,16.07
2019-03-10T14:25:48.674Z,14.47
2019-03-10T14:28:35.212Z,13.32
2019-03-10T14:31:02.236Z,13.65
2019-03-10T14:33:29.229Z,13.98
2019-03-10T14:35:56.388Z,14.45
2019-03-10T14:38:23.595Z,14.53
2019-03-10T14:40:50.413Z,11.30
2019-03-10T14:43:17.252Z,12.25
2019-03-10T14:45:44.618Z,15.53
2019-03-10T14:48:12.930Z,11.85
2019-03-10T14:50:39.632Z,12.47
2019-03-10T14:53:06.288Z,10.80
2019-03-10T14:55:32.989Z,17.15
2019-03-10T14:58:06.275Z,15.03
2019-03-10T15:00:33.240Z,12.80
2019-03-10T15:02:59.916Z,16.10
2019-03-10T15:05:26.589Z,13.80
2019-03-10T15:07:52.999Z,17.57
2019-03-10T15:10:19.702Z,16.73
2019-03-10T15:12:46.473Z,14.70
2019-03-10T15:15:22.317Z,14.30
2019-03-10T15:17:46.024Z,14.65
2019-03-10T15:20:14.998Z,11.93
2019-03-10T15:22:41.754Z,12.95
2019-03-10T15:25:13.892Z,13.25
2019-03-10T15:27:40.556Z,12.73
2019-03-10T15:30:22.567Z,9.38
2019-03-10T15:32:49.045Z,11.60
2019-03-10T15:35:15.487Z,10.40
2019-03-10T15:37:52.790Z,13.15
2019-03-10T15:40:19.647Z,12.60
2019-03-10T15:42:46.428Z,13.98
2019-03-10T15:45:15.648Z,15.43
2019-03-10T15:47:42.501Z,11.18
2019-03-10T15:50:25.124Z,16.77
2019-03-10T15:52:51.768Z,14.33
2019-03-10T15:55:18.217Z,12.35
2019-03-10T15:57:50.332Z,13.58
2019-03-10T16:00:20.327Z,13.65
2019-03-10T16:02:47.137Z,18.80
2019-03-10T16:05:14.346Z,20.65
2019-03-10T16:07:41.272Z,18.70
2019-03-10T16:10:12.754Z,20.72
2019-03-10T16:12:39.583Z,15.15
2019-03-10T16:15:20.106Z,13.08
2019-03-10T16:17:47.741Z,13.53
2019-03-10T16:20:14.722Z,20.25
2019-03-10T16:22:41.707Z,14.15
2019-03-10T16:25:11.739Z,20.70
2019-03-10T16:27:38.717Z,16.12
2019-03-10T16:30:18.026Z,13.93
2019-03-10T16:32:46.635Z,12.20
2019-03-10T16:35:13.802Z,12.88
2019-03-10T16:37:40.673Z,11.93
2019-03-10T16:40:10.788Z,16.07
2019-03-10T16:42:37.758Z,15.15
2019-03-10T16:45:08.344Z,15.30
2019-03-10T16:47:36.556Z,17.87
2019-03-10T16:50:06.909Z,17.70
2019-03-10T16:52:35.662Z,19.50
2019-03-10T16:55:04.815Z,21.77
2019-03-10T16:57:32.209Z,20.60
2019-03-10T16:59:59.972Z,23.90
2019-03-10T17:02:26.887Z,29.45
2019-03-10T17:05:16.013Z,27.35
2019-03-10T17:07:45.182Z,26.73
2019-03-10T17:10:24.055Z,20.65
2019-03-10T17:12:52.404Z,24.65
2019-03-10T17:15:21.056Z,26.40
2019-03-10T17:17:50.342Z,22.37
2019-03-10T17:20:20.070Z,22.35
2019-03-10T17:22:50.537Z,25.97
2019-03-10T17:25:19.851Z,15.88
2019-03-10T17:27:48.792Z,17.92
2019-03-10T17:30:26.877Z,21.27
2019-03-10T17:32:56.659Z,18.10
2019-03-10T17:35:23.838Z,15.68
2019-03-10T17:37:55.560Z,14.93
2019-03-10T17:40:24.229Z,22.87
2019-03-10T17:42:51.422Z,26.57
2019-03-10T17:45:22.011Z,19.07
2019-03-10T17:47:50.445Z,16.95
2019-03-10T17:50:22.794Z,24.92
2019-03-10T17:52:54.011Z,30.23
2019-03-10T17:55:24.280Z,22.55
2019-03-10T17:58:00.223Z,20.85
2019-03-10T18:00:34.600Z,16.15
2019-03-10T18:03:02.062Z,17.07
2019-03-10T18:05:29.813Z,25.25
2019-03-10T18:08:01.406Z,22.32
2019-03-10T18:10:33.258Z,15.15
2019-03-10T18:13:07.572Z,26.75
2019-03-10T18:15:39.564Z,21.33
2019-03-10T18:18:06.400Z,19.98
2019-03-10T18:20:33.225Z,23.20
2019-03-10T18:23:01.824Z,23.75
2019-03-10T18:25:30.610Z,19.55
2019-03-10T18:27:59.000Z,20.08
2019-03-10T18:30:26.442Z,19.10
2019-03-10T18:32:54.605Z,17.62
2019-03-10T18:35:21.099Z,25.02
2019-03-10T18:37:48.028Z,22.02
2019-03-10T18:40:24.722Z,21.02
2019-03-10T18:42:53.796Z,25.45
2019-03-10T18:45:20.216Z,23.80
2019-03-10T18:47:46.982Z,17.90
2019-03-10T18:50:16.715Z,22.15
2019-03-10T18:52:45.033Z,18.02
2019-03-10T18:55:13.624Z,23.07
2019-03-10T18:57:40.585Z,20.35
2019-03-10T19:00:24.596Z,18.73
2019-03-10T19:02:52.050Z,19.57
2019-03-10T19:05:18.860Z,18.32
2019-03-10T19:07:45.786Z,20.27
2019-03-10T19:10:13.242Z,23.67
2019-03-10T19:12:39.987Z,23.02
2019-03-10T19:15:24.613Z,21.27
2019-03-10T19:17:51.375Z,21.35
2019-03-10T19:20:17.912Z,19.35
2019-03-10T19:22:45.940Z,23.15
2019-03-10T19:25:15.900Z,21.15
2019-03-10T19:27:56.481Z,27.17
2019-03-10T19:30:23.716Z,22.32
2019-03-10T19:32:50.576Z,22.77
2019-03-10T19:35:19.385Z,28.05
2019-03-10T19:37:45.942Z,23.42
2019-03-10T19:40:16.937Z,23.42
2019-03-10T19:42:44.550Z,22.42
2019-03-10T19:45:17.584Z,24.47
2019-03-10T19:47:44.978Z,22.37
2019-03-10T19:50:26.898Z,27.48
2019-03-10T19:52:52.913Z,26.65
2019-03-10T19:55:19.758Z,25.30
2019-03-10T19:57:46.941Z,20.88
2019-03-10T20:00:15.240Z,26.60
2019-03-10T20:02:41.960Z,22.42
2019-03-10T20:05:08.539Z,20.10
2019-03-10T20:07:35.333Z,21.95
2019-03-10T20:10:09.854Z,20.95
2019-03-10T20:12:36.775Z,23.57
2019-03-10T20:15:09.572Z,22.35
2019-03-10T20:17:37.857Z,27.50
2019-03-10T20:20:08.425Z,25.08
2019-03-10T20:22:35.005Z,26.48
2019-03-10T20:25:03.033Z,26.85
2019-03-10T20:27:30.058Z,27.80
2019-03-10T20:29:56.616Z,25.00
2019-03-10T20:32:23.048Z,24.20
2019-03-10T20:34:49.474Z,26.97
2019-03-10T20:37:17.148Z,22.58
2019-03-10T20:39:44.361Z,24.80
2019-03-10T20:42:12.167Z,21.65
2019-03-10T20:44:39.470Z,28.32
2019-03-10T20:47:05.882Z,30.43
2019-03-10T20:49:32.424Z,27.00
2019-03-10T20:51:58.851Z,28.67
2019-03-10T20:54:25.411Z,29.05
2019-03-10T20:56:52.099Z,29.95
2019-03-10T20:59:18.762Z,27.25
2019-03-10T21:01:45.545Z,28.17
2019-03-10T21:04:12.148Z,30.08
2019-03-10T21:06:38.614Z,27.27
2019-03-10T21:09:05.183Z,35.60
2019-03-10T21:11:33.586Z,34.10
2019-03-10T21:14:00.277Z,30.57
2019-03-10T21:16:26.985Z,30.17
2019-03-10T21:18:53.450Z,37.88
2019-03-10T21:21:20.085Z,29.30
2019-03-10T21:23:46.464Z,30.72
2019-03-10T21:26:13.004Z,25.12
2019-03-10T21:28:39.610Z,25.25
2019-03-10T21:31:06.155Z,28.23
2019-03-10T21:33:32.986Z,33.40
2019-03-10T21:35:59.472Z,28.05
2019-03-10T21:38:26.168Z,29.37
2019-03-10T21:40:52.627Z,26.70
2019-03-10T21:43:19.095Z,29.05
2019-03-10T21:45:47.528Z,24.43
2019-03-10T21:48:14.353Z,26.23
2019-03-10T21:50:40.888Z,29.92
2019-03-10T21:53:07.336Z,30.90
2019-03-10T21:55:33.828Z,37.17
2019-03-10T21:58:00.260Z,33.25
2019-03-10T22:00:27.024Z,31.00
2019-03-10T22:02:53.535Z,30.27
2019-03-10T22:05:19.916Z,31.42
2019-03-10T22:07:46.560Z,29.60
2019-03-10T22:10:27.006Z,32.13
2019-03-10T22:12:48.698Z,27.07
2019-03-10T22:15:19.449Z,28.45
2019-03-10T22:17:45.965Z,33.20
2019-03-10T22:20:13.698Z,26.35
2019-03-10T22:22:48.392Z,29.15
2019-03-10T22:25:12.894Z,27.55
2019-03-10T22:27:37.175Z,31.55
2019-03-10T22:30:07.423Z,29.75
2019-03-10T22:32:35.062Z,28.55
2019-03-10T22:35:01.510Z,25.80
2019-03-10T22:37:28.002Z,30.20
2019-03-10T22:39:54.367Z,25.10
2019-03-10T22:42:20.672Z,26.52
2019-03-10T22:44:47.206Z,25.68
2019-03-10T22:47:13.523Z,29.37
2019-03-10T22:50:02.518Z,30.12
2019-03-10T22:52:28.200Z,25.32
2019-03-10T22:54:54.596Z,35.10
2019-03-10T22:57:20.953Z,30.43
2019-03-10T23:00:09.031Z,26.00
2019-03-10T23:02:37.277Z,28.90
2019-03-10T23:05:05.104Z,29.10
2019-03-10T23:07:31.687Z,27.42
2019-03-10T23:09:58.033Z,28.62
2019-03-10T23:12:24.377Z,27.55
2019-03-10T23:14:50.705Z,29.20
2019-03-10T23:17:17.023Z,26.35
2019-03-10T23:19:44.639Z,27.75
2019-03-10T23:22:11.103Z,28.75
2019-03-10T23:24:37.422Z,28.50
2019-03-10T23:27:03.850Z,30.02
2019-03-10T23:29:30.183Z,32.30
2019-03-10T23:31:56.596Z,32.10
2019-03-10T23:34:23.019Z,35.10
2019-03-10T23:36:49.340Z,31.02
2019-03-10T23:39:15.716Z,33.90
2019-03-10T23:41:42.196Z,34.53
2019-03-10T23:44:08.656Z,39.35
2019-03-10T23:46:34.980Z,30.92
2019-03-10T23:49:01.286Z,30.50
2019-03-10T23:51:27.604Z,30.65
2019-03-10T23:53:53.920Z,29.63
2019-03-10T23:56:20.260Z,33.25
2019-03-10T23:58:46.669Z,32.85
